createdAt,value
2023-02-03T00:00:27.664Z,10.50
2023-02-03T00:02:34.673Z,10.70
2023-02-03T00:06:45.874Z,10.70
2023-02-03T00:07:48.266Z,10.50
2023-02-03T00:13:04.623Z,8.20
2023-02-03T00:17:15.266Z,11.00
2023-02-03T00:37:15.637Z,9.40
2023-02-03T00:38:18.340Z,9.55
2023-02-03T00:39:21.702Z,11.27
2023-02-03T00:40:25.957Z,10.10
2023-02-03T00:41:30.377Z,10.00
2023-02-03T00:42:35.039Z,10.60
2023-02-03T00:43:38.113Z,11.30
2023-02-03T00:44:40.396Z,8.09
2023-02-03T00:45:43.820Z,11.10
2023-02-03T00:46:46.287Z,9.60
2023-02-03T00:47:48.997Z,10.00
2023-02-03T00:48:51.583Z,9.09
2023-02-03T00:49:53.897Z,9.90
2023-02-03T00:50:56.677Z,11.55
2023-02-03T00:52:01.047Z,8.80
2023-02-03T00:53:03.730Z,8.70
2023-02-03T00:54:06.305Z,10.50
2023-02-03T00:55:09.040Z,9.60
2023-02-03T00:56:12.210Z,10.30
2023-02-03T00:57:14.692Z,10.40
2023-02-03T00:58:17.125Z,8.80
2023-02-03T00:59:20.586Z,10.50
2023-02-03T01:00:23.420Z,7.30
2023-02-03T01:01:27.314Z,11.09
2023-02-03T01:02:31.112Z,8.70
2023-02-03T01:03:33.663Z,9.20
2023-02-03T01:04:36.465Z,8.73
2023-02-03T01:05:40.112Z,9.90
2023-02-03T01:06:42.797Z,9.10
2023-02-03T01:07:45.487Z,10.50
2023-02-03T01:08:48.114Z,8.10
2023-02-03T01:09:50.425Z,9.00
2023-02-03T01:10:54.231Z,9.60
2023-02-03T01:11:57.696Z,10.30
2023-02-03T01:13:00.963Z,8.50
2023-02-03T01:14:03.943Z,9.90
2023-02-03T01:15:08.291Z,9.70
2023-02-03T01:16:12.341Z,10.30
2023-02-03T01:17:15.682Z,3.60
2023-02-03T01:18:20.320Z,10.20
2023-02-03T01:19:23.440Z,9.20
2023-02-03T01:20:26.456Z,9.60
2023-02-03T01:21:30.052Z,9.40
2023-02-03T01:22:33.976Z,9.60
2023-02-03T01:23:36.823Z,9.00
2023-02-03T01:24:42.014Z,8.50
2023-02-03T01:25:45.261Z,10.30
2023-02-03T01:26:47.871Z,9.20
2023-02-03T01:27:52.164Z,8.50
2023-02-03T01:28:56.771Z,10.40
2023-02-03T01:29:59.247Z,9.80
2023-02-03T01:31:14.069Z,6.20
2023-02-03T01:32:16.596Z,9.60
2023-02-03T01:33:20.449Z,10.18
2023-02-03T01:34:24.155Z,9.30
2023-02-03T01:35:27.949Z,6.30
2023-02-03T01:36:31.304Z,9.40
2023-02-03T01:37:33.716Z,8.50
2023-02-03T01:38:37.106Z,10.70
2023-02-03T01:39:40.172Z,10.20
2023-02-03T01:40:46.047Z,10.10
2023-02-03T01:41:49.696Z,8.00
2023-02-03T01:42:52.048Z,9.50
2023-02-03T01:43:56.034Z,8.60
2023-02-03T01:44:58.378Z,8.00
2023-02-03T02:41:36.694Z,7.50
2023-02-03T02:42:56.295Z,8.70
2023-02-03T02:44:05.374Z,9.50
2023-02-03T02:45:18.083Z,8.90
2023-02-03T02:46:43.088Z,10.00
2023-02-03T02:47:45.877Z,9.50
2023-02-03T02:48:53.091Z,8.50
2023-02-03T02:50:10.812Z,9.30
2023-02-03T02:51:14.896Z,9.50
2023-02-03T02:52:17.817Z,9.90
2023-02-03T02:53:21.514Z,9.00
2023-02-03T02:54:24.331Z,6.40
2023-02-03T02:55:28.489Z,9.20
2023-02-03T02:56:34.319Z,0.40
2023-02-03T02:57:37.311Z,8.50
2023-02-03T02:58:40.796Z,7.90
2023-02-03T02:59:45.926Z,9.10
2023-02-03T03:00:49.089Z,9.30
2023-02-03T03:01:51.787Z,8.80
2023-02-03T03:02:55.193Z,8.50
2023-02-03T03:03:58.887Z,8.50
2023-02-03T03:05:04.883Z,8.50
2023-02-03T03:06:12.795Z,9.00
2023-02-03T03:07:21.309Z,8.20
2023-02-03T03:08:27.552Z,7.50
2023-02-03T03:09:36.235Z,7.00
2023-02-03T03:10:38.995Z,7.00
2023-02-03T03:11:45.630Z,9.10
2023-02-03T03:12:51.085Z,8.40
2023-02-03T03:13:54.320Z,9.10
2023-02-03T03:14:59.788Z,9.00
2023-02-03T03:16:02.843Z,7.00
2023-02-03T03:17:06.322Z,7.40
2023-02-03T03:18:12.884Z,6.80
2023-02-03T03:19:19.368Z,8.20
2023-02-03T03:20:25.836Z,7.80
2023-02-03T03:22:49.680Z,8.90
2023-02-03T03:23:52.248Z,7.40
2023-02-03T03:26:36.427Z,8.00
2023-02-03T03:27:40.511Z,8.40
2023-02-03T03:30:14.607Z,7.40
2023-02-03T03:31:17.667Z,7.60
2023-02-03T03:32:20.804Z,7.09
2023-02-03T03:33:23.376Z,8.70
2023-02-03T03:34:26.705Z,8.00
2023-02-03T03:35:38.967Z,7.40
2023-02-03T03:36:59.913Z,9.20
2023-02-03T03:39:25.938Z,7.80
2023-02-03T03:42:41.870Z,8.30
2023-02-03T03:43:44.230Z,8.60
2023-02-03T03:44:59.182Z,7.80
2023-02-03T03:46:05.446Z,8.60
2023-02-03T03:47:14.726Z,7.70
2023-02-03T03:48:20.042Z,7.60
2023-02-03T03:49:23.789Z,8.70
2023-02-03T03:50:28.616Z,7.60
2023-02-03T03:51:37.071Z,8.30
2023-02-03T03:52:39.524Z,8.20
2023-02-03T03:53:42.614Z,8.00
2023-02-03T03:54:44.952Z,7.40
2023-02-03T03:55:49.265Z,8.80
2023-02-03T03:57:04.306Z,8.90
2023-02-03T03:58:14.807Z,8.10
2023-02-03T03:59:19.453Z,7.70
2023-02-03T04:00:22.064Z,7.60
2023-02-03T04:01:24.832Z,7.50
2023-02-03T04:02:27.668Z,6.55
2023-02-03T04:04:48.315Z,7.60
2023-02-03T04:05:51.301Z,2.40
2023-02-03T04:06:55.457Z,8.00
2023-02-03T04:07:59.436Z,7.20
2023-02-03T04:09:02.498Z,7.50
2023-02-03T04:10:06.934Z,6.10
2023-02-03T04:11:10.228Z,7.60
2023-02-03T04:12:20.475Z,7.40
2023-02-03T04:13:22.909Z,7.00
2023-02-03T04:14:25.272Z,7.40
2023-02-03T04:15:27.626Z,7.90
2023-02-03T04:16:30.433Z,7.10
2023-02-03T04:17:34.809Z,6.00
2023-02-03T04:18:37.439Z,8.30
2023-02-03T04:19:40.149Z,7.55
2023-02-03T04:20:42.977Z,6.60
2023-02-03T04:21:45.309Z,7.40
2023-02-03T04:22:48.502Z,6.90
2023-02-03T04:23:52.157Z,7.60
2023-02-03T04:24:56.475Z,7.10
2023-02-03T04:26:00.726Z,6.80
2023-02-03T04:27:05.384Z,6.60
2023-02-03T04:28:08.812Z,7.40
2023-02-03T04:29:12.384Z,7.70
2023-02-03T04:30:16.051Z,6.80
2023-02-03T04:31:18.705Z,6.10
2023-02-03T04:32:21.110Z,9.00
2023-02-03T04:33:23.419Z,7.20
2023-02-03T04:34:25.832Z,6.50
2023-02-03T04:35:29.117Z,7.80
2023-02-03T04:36:31.945Z,6.90
2023-02-03T04:37:34.333Z,7.00
2023-02-03T04:38:37.192Z,7.10
2023-02-03T04:39:40.068Z,8.55
2023-02-03T04:40:44.978Z,8.30
2023-02-03T04:41:48.027Z,7.30
2023-02-03T04:42:50.369Z,5.90
2023-02-03T04:43:53.760Z,6.40
2023-02-03T04:44:57.250Z,8.30
2023-02-03T04:46:00.494Z,6.40
2023-02-03T04:47:03.094Z,7.10
2023-02-03T04:48:07.086Z,7.30
2023-02-03T04:49:11.065Z,7.40
2023-02-03T04:50:14.198Z,7.90
2023-02-03T04:51:17.213Z,6.90
2023-02-03T04:52:20.052Z,7.10
2023-02-03T04:53:22.439Z,6.91
2023-02-03T04:54:24.931Z,6.60
2023-02-03T04:55:27.939Z,7.30
2023-02-03T04:56:30.605Z,6.60
2023-02-03T04:57:33.157Z,6.70
2023-02-03T04:58:36.592Z,6.70
2023-02-03T04:59:39.022Z,6.50
2023-02-03T05:00:42.166Z,6.80
2023-02-03T05:01:45.177Z,6.70
2023-02-03T05:02:47.702Z,6.90
2023-02-03T05:03:50.078Z,6.90
2023-02-03T05:04:52.480Z,6.00
2023-02-03T05:05:57.532Z,6.40
2023-02-03T05:07:00.807Z,6.00
2023-02-03T05:08:03.926Z,5.80
2023-02-03T05:09:06.423Z,6.40
2023-02-03T05:10:10.021Z,6.80
2023-02-03T05:11:12.351Z,7.30
2023-02-03T05:12:15.501Z,6.80
2023-02-03T05:13:18.357Z,9.00
2023-02-03T05:14:22.657Z,9.64
2023-02-03T05:15:25.722Z,11.80
2023-02-03T05:16:28.484Z,12.40
2023-02-03T05:17:31.325Z,13.20
2023-02-03T05:18:34.525Z,12.45
2023-02-03T05:19:36.905Z,9.50
2023-02-03T05:20:39.683Z,13.10
2023-02-03T05:21:42.015Z,13.20
2023-02-03T05:22:44.456Z,9.80
2023-02-03T05:23:48.002Z,11.90
2023-02-03T05:24:50.474Z,9.40
2023-02-03T05:25:52.795Z,10.90
2023-02-03T05:26:55.348Z,12.10
2023-02-03T05:27:57.904Z,15.30
2023-02-03T05:29:00.833Z,15.00
2023-02-03T05:30:03.926Z,18.36
2023-02-03T05:31:07.129Z,19.30
2023-02-03T05:32:09.720Z,17.50
2023-02-03T05:33:12.172Z,20.10
2023-02-03T05:34:15.664Z,16.30
2023-02-03T05:35:19.711Z,18.50
2023-02-03T05:36:23.145Z,19.70
2023-02-03T05:37:25.507Z,19.60
2023-02-03T05:38:27.801Z,14.80
2023-02-03T05:39:30.453Z,15.50
2023-02-03T05:40:53.717Z,19.80
2023-02-03T05:41:58.560Z,18.80
2023-02-03T05:43:01.062Z,15.50
2023-02-03T05:44:03.904Z,17.22
2023-02-03T05:45:07.718Z,17.80
2023-02-03T05:46:10.713Z,17.20
2023-02-03T05:47:13.392Z,16.70
2023-02-03T05:48:15.706Z,16.70
2023-02-03T05:49:19.423Z,17.90
2023-02-03T05:50:23.444Z,19.10
2023-02-03T05:51:26.559Z,19.10
2023-02-03T05:52:28.976Z,18.55
2023-02-03T05:53:32.326Z,17.40
2023-02-03T05:54:35.687Z,16.90
2023-02-03T05:55:39.303Z,18.50
2023-02-03T05:56:42.096Z,18.20
2023-02-03T05:57:45.404Z,16.00
2023-02-03T05:58:50.102Z,18.20
2023-02-03T05:59:53.119Z,18.20
2023-02-03T06:00:56.509Z,13.30
2023-02-03T06:01:59.105Z,16.90
2023-02-03T06:03:02.970Z,19.50
2023-02-03T06:04:06.446Z,17.00
2023-02-03T06:05:09.786Z,16.30
2023-02-03T06:06:12.701Z,17.40
2023-02-03T06:07:15.724Z,18.45
2023-02-03T06:08:18.497Z,16.73
2023-02-03T06:09:20.881Z,15.30
2023-02-03T06:10:23.586Z,17.30
2023-02-03T06:11:26.101Z,17.90
2023-02-03T06:12:29.547Z,18.40
2023-02-03T06:13:33.078Z,16.60
2023-02-03T06:14:36.000Z,18.60
2023-02-03T06:15:38.715Z,16.40
2023-02-03T06:16:41.239Z,17.09
2023-02-03T06:19:08.969Z,17.00
2023-02-03T06:20:12.661Z,16.00
2023-02-03T06:21:15.049Z,15.20
2023-02-03T06:22:19.140Z,16.50
2023-02-03T06:23:21.742Z,16.60
2023-02-03T06:24:24.168Z,17.00
2023-02-03T06:25:26.794Z,15.90
2023-02-03T06:26:31.422Z,17.00
2023-02-03T06:27:34.895Z,17.30
2023-02-03T06:28:38.334Z,17.80
2023-02-03T06:29:42.878Z,17.20
2023-02-03T06:30:47.672Z,18.60
2023-02-03T06:31:51.648Z,18.10
2023-02-03T06:32:55.208Z,16.30
2023-02-03T06:33:58.980Z,16.30
2023-02-03T06:35:02.684Z,15.90
2023-02-03T06:36:06.117Z,14.80
2023-02-03T06:37:09.513Z,15.80
2023-02-03T06:38:13.866Z,17.30
2023-02-03T06:39:16.381Z,16.40
2023-02-03T06:40:18.908Z,17.90
2023-02-03T06:41:23.701Z,16.70
2023-02-03T06:42:27.028Z,14.80
2023-02-03T06:43:30.725Z,17.00
2023-02-03T06:44:33.661Z,15.90
2023-02-03T06:45:36.259Z,15.10
2023-02-03T06:46:38.800Z,15.30
2023-02-03T06:47:42.283Z,16.20
2023-02-03T06:48:45.479Z,17.30
2023-02-03T06:49:47.768Z,16.50
2023-02-03T06:50:50.439Z,16.40
2023-02-03T06:51:52.983Z,14.90
2023-02-03T06:52:55.970Z,15.20
2023-02-03T06:53:58.775Z,16.36
2023-02-03T06:55:01.825Z,17.20
2023-02-03T06:56:05.213Z,14.50
2023-02-03T06:57:07.685Z,17.10
2023-02-03T06:58:10.012Z,16.30
2023-02-03T06:59:13.997Z,16.40
2023-02-03T07:00:25.988Z,16.80
2023-02-03T07:01:22.324Z,16.10
2023-02-03T07:02:25.586Z,14.50
2023-02-03T07:03:29.123Z,13.82
2023-02-03T07:04:31.624Z,14.40
2023-02-03T07:05:36.097Z,16.90
2023-02-03T07:06:38.687Z,16.50
2023-02-03T07:07:41.482Z,14.80
2023-02-03T07:08:44.886Z,16.20
2023-02-03T07:09:48.209Z,14.90
2023-02-03T07:10:54.828Z,16.60
2023-02-03T07:11:57.785Z,16.60
2023-02-03T07:13:05.424Z,16.80
2023-02-03T07:14:07.871Z,14.00
2023-02-03T07:15:11.423Z,16.70
2023-02-03T07:16:14.269Z,14.40
2023-02-03T07:17:19.748Z,15.18
2023-02-03T07:19:31.187Z,15.50
2023-02-03T07:20:35.070Z,15.80
2023-02-03T07:21:37.708Z,14.30
2023-02-03T07:22:42.001Z,15.30
2023-02-03T07:23:48.321Z,15.90
2023-02-03T07:24:53.006Z,13.80
2023-02-03T07:26:01.350Z,14.90
2023-02-03T07:27:04.645Z,11.40
2023-02-03T07:28:08.149Z,12.90
2023-02-03T07:29:11.678Z,15.00
2023-02-03T07:30:15.544Z,12.40
2023-02-03T07:31:19.442Z,12.10
2023-02-03T07:32:21.868Z,14.10
2023-02-03T07:33:24.216Z,11.40
2023-02-03T07:34:26.588Z,12.40
2023-02-03T07:35:29.234Z,12.00
2023-02-03T07:36:32.707Z,12.00
2023-02-03T07:37:35.504Z,11.80
2023-02-03T07:38:38.780Z,13.27
2023-02-03T07:39:43.454Z,12.40
2023-02-03T07:40:46.090Z,7.50
2023-02-03T07:41:48.506Z,10.70
2023-02-03T07:42:53.170Z,9.50
2023-02-03T07:43:56.603Z,8.60
2023-02-03T07:45:00.721Z,10.50
2023-02-03T07:46:04.669Z,9.50
2023-02-03T07:47:07.142Z,9.70
2023-02-03T07:48:10.904Z,7.90
2023-02-03T07:49:14.119Z,10.80
2023-02-03T07:50:16.637Z,10.50
2023-02-03T07:51:19.066Z,9.70
2023-02-03T07:52:22.135Z,9.60
2023-02-03T07:53:25.144Z,9.70
2023-02-03T07:54:29.220Z,9.27
2023-02-03T07:55:32.193Z,10.50
2023-02-03T07:56:34.881Z,8.30
2023-02-03T07:57:39.501Z,10.30
2023-02-03T07:58:44.032Z,8.70
2023-02-03T07:59:48.269Z,9.90
2023-02-03T08:00:50.916Z,8.90
2023-02-03T08:01:55.248Z,8.60
2023-02-03T08:02:58.497Z,10.80
2023-02-03T08:04:01.954Z,8.50
2023-02-03T08:05:04.789Z,9.00
2023-02-03T08:06:08.087Z,8.80
2023-02-03T08:07:10.550Z,8.30
2023-02-03T08:08:12.765Z,7.50
2023-02-03T08:09:17.139Z,9.10
2023-02-03T08:10:20.185Z,8.00
2023-02-03T08:11:23.853Z,8.55
2023-02-03T08:12:26.411Z,9.60
2023-02-03T08:13:29.653Z,6.70
2023-02-03T08:14:33.174Z,7.20
2023-02-03T08:15:37.688Z,9.70
2023-02-03T08:16:41.997Z,9.00
2023-02-03T08:17:45.327Z,9.70
2023-02-03T08:18:48.469Z,10.30
2023-02-03T08:19:51.065Z,8.50
2023-02-03T08:20:54.550Z,8.10
2023-02-03T08:21:58.740Z,8.90
2023-02-03T08:23:01.344Z,8.70
2023-02-03T08:24:05.590Z,8.50
2023-02-03T08:25:09.095Z,8.10
2023-02-03T08:26:12.918Z,8.30
2023-02-03T08:27:17.308Z,7.64
2023-02-03T08:28:19.966Z,8.00
2023-02-03T08:29:22.566Z,8.73
2023-02-03T08:30:26.030Z,8.10
2023-02-03T08:31:30.307Z,7.90
2023-02-03T08:32:33.022Z,11.70
2023-02-03T08:33:36.070Z,7.80
2023-02-03T08:34:39.034Z,3.90
2023-02-03T08:35:47.110Z,6.60
2023-02-03T08:36:49.669Z,7.80
2023-02-03T08:37:53.802Z,8.20
2023-02-03T08:38:57.574Z,9.10
2023-02-03T08:40:01.092Z,8.50
2023-02-03T08:41:16.197Z,10.40
2023-02-03T08:42:19.785Z,10.20
2023-02-03T08:43:22.308Z,7.60
2023-02-03T08:44:25.633Z,10.50
2023-02-03T08:45:28.052Z,7.80
2023-02-03T08:46:32.687Z,10.30
2023-02-03T08:47:36.951Z,10.60
2023-02-03T08:48:40.149Z,9.50
2023-02-03T08:49:42.759Z,9.30
2023-02-03T08:50:47.539Z,10.70
2023-02-03T08:51:50.535Z,8.70
2023-02-03T08:52:53.020Z,11.20
2023-02-03T08:53:55.440Z,9.30
2023-02-03T08:54:58.231Z,11.90
2023-02-03T08:57:21.458Z,10.60
2023-02-03T08:58:25.142Z,9.00
2023-02-03T08:59:28.658Z,10.00
2023-02-03T09:00:32.010Z,10.40
2023-02-03T09:01:34.481Z,10.20
2023-02-03T09:02:37.848Z,10.20
2023-02-03T09:03:41.577Z,10.50
2023-02-03T09:04:45.239Z,9.30
2023-02-03T09:05:47.670Z,9.50
2023-02-03T09:06:55.919Z,8.70
2023-02-03T09:07:58.375Z,10.20
2023-02-03T09:09:00.551Z,9.90
2023-02-03T09:10:03.536Z,8.90
2023-02-03T09:11:10.329Z,9.64
2023-02-03T09:12:12.715Z,11.40
2023-02-03T09:13:15.102Z,8.20
2023-02-03T09:14:19.414Z,8.60
2023-02-03T09:15:21.763Z,8.30
2023-02-03T09:16:26.188Z,10.00
2023-02-03T09:17:29.133Z,9.70
2023-02-03T09:18:33.286Z,8.70
2023-02-03T09:19:36.759Z,7.50
2023-02-03T09:20:39.459Z,7.90
2023-02-03T09:21:44.685Z,8.20
2023-02-03T09:22:46.761Z,8.10
2023-02-03T09:23:49.762Z,8.00
2023-02-03T09:24:52.406Z,7.80
2023-02-03T09:25:55.326Z,8.10
2023-02-03T09:26:59.264Z,1.50
2023-02-03T09:28:02.301Z,8.30
2023-02-03T09:29:04.918Z,7.10
2023-02-03T09:30:09.402Z,8.50
2023-02-03T09:31:14.033Z,9.10
2023-02-03T09:32:17.096Z,8.40
2023-02-03T09:33:21.724Z,8.20
2023-02-03T09:34:24.645Z,7.30
2023-02-03T09:35:29.206Z,2.30
2023-02-03T09:36:32.676Z,4.80
2023-02-03T09:37:35.074Z,8.40
2023-02-03T09:38:38.759Z,6.90
2023-02-03T09:39:41.251Z,7.40
2023-02-03T09:40:43.694Z,6.90
2023-02-03T09:42:12.903Z,6.30
2023-02-03T09:44:59.996Z,6.40
2023-02-03T09:46:08.922Z,6.30
2023-02-03T09:47:16.126Z,6.30
2023-02-03T09:48:23.288Z,4.50
2023-02-03T11:47:24.133Z,8.00
2023-02-03T11:48:39.577Z,8.30
2023-02-03T11:54:08.118Z,8.70
2023-02-03T11:55:32.603Z,8.10
2023-02-03T11:56:54.428Z,7.40
2023-02-03T11:58:15.880Z,9.30
2023-02-03T11:59:29.534Z,8.20
2023-02-03T12:02:35.303Z,7.90
2023-02-03T12:04:02.295Z,5.80
2023-02-03T12:05:20.715Z,8.40
2023-02-03T12:06:32.976Z,8.10
2023-02-03T12:07:42.491Z,7.10
2023-02-03T12:08:54.719Z,7.50
2023-02-03T12:10:09.781Z,7.80
2023-02-03T12:11:33.656Z,7.60
2023-02-03T12:12:56.324Z,6.50
2023-02-03T12:14:28.929Z,8.60
2023-02-03T12:15:46.395Z,9.20
2023-02-03T12:18:34.922Z,6.60
2023-02-03T12:19:44.317Z,7.50
2023-02-03T12:21:10.436Z,7.80
2023-02-03T12:23:39.928Z,6.50
2023-02-03T12:24:53.630Z,6.20
2023-02-03T12:27:46.333Z,6.70
2023-02-03T12:29:02.110Z,6.00
2023-02-03T12:30:18.700Z,7.90
2023-02-03T12:31:27.542Z,9.10
2023-02-03T12:32:36.889Z,9.40
2023-02-03T12:33:43.766Z,4.50
2023-02-03T12:35:10.592Z,6.00
2023-02-03T12:36:26.551Z,9.80
2023-02-03T12:37:32.500Z,4.00
2023-02-03T12:38:56.616Z,7.50
2023-02-03T12:40:03.043Z,7.40
2023-02-03T12:41:14.083Z,6.20
2023-02-03T12:42:31.635Z,8.60
2023-02-03T12:43:38.006Z,6.50
2023-02-03T12:44:47.487Z,8.20
2023-02-03T12:47:24.511Z,6.10
2023-02-03T12:49:47.862Z,8.50
2023-02-03T12:51:59.651Z,8.10
2023-02-03T12:55:04.620Z,6.90
2023-02-03T12:56:10.429Z,8.20
2023-02-03T12:57:19.609Z,8.40
2023-02-03T12:58:28.577Z,7.80
2023-02-03T12:59:32.097Z,7.00
2023-02-03T13:00:38.320Z,6.90
2023-02-03T13:01:55.184Z,7.50
2023-02-03T13:04:32.768Z,7.50
2023-02-03T13:05:48.601Z,7.20
2023-02-03T13:07:16.585Z,6.90
2023-02-03T13:08:26.027Z,8.10
2023-02-03T13:09:39.460Z,7.00
2023-02-03T13:10:50.670Z,5.80
2023-02-03T13:12:08.799Z,6.80
2023-02-03T13:13:14.015Z,7.20
2023-02-03T13:14:30.435Z,6.80
2023-02-03T13:15:39.354Z,6.50
2023-02-03T13:16:45.181Z,7.20
2023-02-03T13:19:26.825Z,6.20
2023-02-03T13:20:32.785Z,5.90
2023-02-03T13:21:36.430Z,6.40
2023-02-03T13:22:38.816Z,4.91
2023-02-03T13:25:10.584Z,5.70
2023-02-03T13:26:35.806Z,7.80
2023-02-03T13:28:15.899Z,6.40
2023-02-03T13:29:45.578Z,7.50
2023-02-03T13:31:09.026Z,6.30
2023-02-03T13:34:20.159Z,6.90
2023-02-03T13:35:43.020Z,7.00
2023-02-03T13:40:02.991Z,9.10
2023-02-03T13:41:22.876Z,6.90
2023-02-03T13:42:32.554Z,6.60
2023-02-03T13:43:38.874Z,7.30
2023-02-03T13:44:40.265Z,7.20
2023-02-03T13:46:50.771Z,6.90
2023-02-03T13:50:04.527Z,7.60
2023-02-03T13:51:15.310Z,6.30
2023-02-03T13:53:39.740Z,7.20
2023-02-03T13:54:44.571Z,6.80
2023-02-03T13:55:58.752Z,5.40
2023-02-03T13:58:24.348Z,7.60
2023-02-03T13:59:33.310Z,7.40
2023-02-03T14:00:48.538Z,6.80
2023-02-03T14:01:50.954Z,7.40
2023-02-03T14:02:56.100Z,6.40
2023-02-03T14:03:59.132Z,6.80
2023-02-03T14:05:02.599Z,7.90
2023-02-03T14:06:08.737Z,6.90
2023-02-03T14:07:34.079Z,6.30
2023-02-03T14:08:40.313Z,9.00
2023-02-03T14:09:46.506Z,7.60
2023-02-03T14:11:09.339Z,8.20
2023-02-03T14:13:40.022Z,7.90
2023-02-03T14:14:44.113Z,8.64
2023-02-03T14:15:48.376Z,7.00
2023-02-03T14:16:54.627Z,8.00
2023-02-03T14:18:01.704Z,9.10
2023-02-03T14:19:05.976Z,10.50
2023-02-03T14:20:30.937Z,14.20
2023-02-03T14:22:53.624Z,18.20
2023-02-03T14:24:01.271Z,21.20
2023-02-03T14:25:05.182Z,21.40
2023-02-03T14:27:32.868Z,23.10
2023-02-03T14:28:43.310Z,27.20
2023-02-03T14:29:46.765Z,29.80
2023-02-03T14:31:07.957Z,30.30
2023-02-03T14:32:11.990Z,28.90
2023-02-03T14:33:15.532Z,30.80
2023-02-03T14:34:19.008Z,29.20
2023-02-03T14:35:23.930Z,29.70
2023-02-03T14:36:39.926Z,29.30
2023-02-03T14:37:45.946Z,28.30
2023-02-03T14:38:48.323Z,30.00
2023-02-03T14:40:15.523Z,28.70
2023-02-03T14:41:19.330Z,23.70
2023-02-03T14:42:26.035Z,21.20
2023-02-03T14:43:40.779Z,21.00
2023-02-03T14:45:06.479Z,20.50
2023-02-03T14:46:30.042Z,19.90
2023-02-03T14:47:38.307Z,20.70
2023-02-03T14:48:53.696Z,20.80
2023-02-03T14:50:18.050Z,20.80
2023-02-03T14:51:33.195Z,12.20
2023-02-03T14:52:47.491Z,19.90
2023-02-03T14:54:00.672Z,18.40
2023-02-03T14:55:15.753Z,18.10
2023-02-03T14:56:25.135Z,16.70
2023-02-03T14:57:37.168Z,16.10
2023-02-03T14:58:49.031Z,14.70
2023-02-03T15:01:37.335Z,13.90
2023-02-03T15:03:01.141Z,12.60
2023-02-03T15:04:17.363Z,10.80
2023-02-03T15:05:25.521Z,10.50
2023-02-03T15:07:52.123Z,8.20
2023-02-03T15:08:56.323Z,8.80
2023-02-03T15:09:58.818Z,7.40
2023-02-03T15:11:20.400Z,9.50
2023-02-03T15:12:25.374Z,8.10
2023-02-03T15:13:29.958Z,6.60
2023-02-03T15:14:32.534Z,7.30
2023-02-03T15:15:38.829Z,7.00
2023-02-03T15:16:43.721Z,6.80
2023-02-03T15:17:46.186Z,5.50
2023-02-03T15:18:56.192Z,6.90
2023-02-03T15:19:59.548Z,6.70
2023-02-03T15:21:03.138Z,6.90
2023-02-03T15:22:22.765Z,6.80
2023-02-03T15:23:29.271Z,5.70
2023-02-03T15:24:36.569Z,5.50
2023-02-03T15:25:40.251Z,5.60
2023-02-03T15:28:11.650Z,6.50
2023-02-03T15:30:35.143Z,6.20
2023-02-03T15:31:47.795Z,7.10
2023-02-03T15:33:03.421Z,5.30
2023-02-03T15:34:23.317Z,5.50
2023-02-03T15:35:27.906Z,4.60
2023-02-03T15:36:34.623Z,5.80
2023-02-03T15:37:43.227Z,7.00
2023-02-03T15:38:51.805Z,4.70
2023-02-03T15:41:23.995Z,4.80
2023-02-03T15:42:50.479Z,4.80
2023-02-03T15:43:55.874Z,5.70
2023-02-03T15:45:04.216Z,5.40
2023-02-03T15:46:23.678Z,5.70
2023-02-03T15:47:29.886Z,5.80
2023-02-03T15:48:38.962Z,4.60
2023-02-03T15:49:42.208Z,5.50
2023-02-03T15:50:51.775Z,6.30
2023-02-03T15:52:00.767Z,5.70
2023-02-03T15:53:12.242Z,6.70
2023-02-03T15:54:19.653Z,7.50
2023-02-03T15:57:04.371Z,6.20
2023-02-03T15:58:08.599Z,5.60
2023-02-03T15:59:26.891Z,7.10
2023-02-03T16:00:37.147Z,6.40
2023-02-03T16:01:40.064Z,3.60
2023-02-03T16:02:45.893Z,8.90
2023-02-03T16:03:54.113Z,14.00
2023-02-03T16:04:57.996Z,12.40
2023-02-03T16:06:16.416Z,13.90
2023-02-03T16:07:25.794Z,13.40
2023-02-03T16:08:41.766Z,14.20
2023-02-03T16:09:44.610Z,15.80
2023-02-03T16:10:47.391Z,15.50
2023-02-03T16:12:05.788Z,17.90
2023-02-03T16:13:24.632Z,16.70
2023-02-03T16:14:35.430Z,17.80
2023-02-03T16:15:37.912Z,15.60
2023-02-03T16:16:55.214Z,19.20
2023-02-03T16:17:47.320Z,19.50
2023-02-03T16:20:25.120Z,20.60
2023-02-03T16:21:52.370Z,20.80
2023-02-03T16:24:39.786Z,23.30
2023-02-03T16:25:44.103Z,23.80
2023-02-03T16:26:47.376Z,25.10
2023-02-03T16:28:22.941Z,24.91
2023-02-03T16:29:48.521Z,24.90
2023-02-03T16:31:28.844Z,24.20
2023-02-03T16:32:49.860Z,23.10
2023-02-03T16:34:14.592Z,23.00
2023-02-03T16:35:38.658Z,23.60
2023-02-03T16:37:01.331Z,22.10
2023-02-03T16:38:32.816Z,22.10
2023-02-03T16:39:54.502Z,20.70
2023-02-03T16:41:15.842Z,18.90
2023-02-03T16:42:38.260Z,19.10
2023-02-03T16:43:59.124Z,16.80
2023-02-03T16:45:21.255Z,17.70
2023-02-03T16:46:42.584Z,18.50
2023-02-03T16:48:04.007Z,17.20
2023-02-03T16:49:26.091Z,15.90
2023-02-03T16:50:47.673Z,17.70
2023-02-03T16:51:50.994Z,11.80
2023-02-03T16:52:53.611Z,15.50
2023-02-03T16:53:57.708Z,14.09
2023-02-03T16:55:00.779Z,12.60
2023-02-03T16:56:05.622Z,14.82
2023-02-03T16:57:08.246Z,10.10
2023-02-03T16:58:13.517Z,13.40
2023-02-03T16:59:16.416Z,13.20
2023-02-03T17:00:21.631Z,14.30
2023-02-03T17:01:25.835Z,13.00
2023-02-03T17:02:29.587Z,13.00
2023-02-03T17:03:33.849Z,13.40
2023-02-03T17:04:36.678Z,13.00
2023-02-03T17:05:40.611Z,10.82
2023-02-03T17:06:43.894Z,11.80
2023-02-03T17:07:46.583Z,13.60
2023-02-03T17:08:50.523Z,11.70
2023-02-03T17:09:53.007Z,2.50
2023-02-03T17:10:55.707Z,12.50
2023-02-03T17:11:58.224Z,13.40
2023-02-03T17:13:01.658Z,13.90
2023-02-03T17:14:05.035Z,10.60
2023-02-03T17:15:08.621Z,11.60
2023-02-03T17:16:19.542Z,11.90
2023-02-03T17:17:22.517Z,11.30
2023-02-03T17:18:25.276Z,9.90
2023-02-03T17:19:32.077Z,11.91
2023-02-03T17:20:37.078Z,12.10
2023-02-03T17:21:42.427Z,13.80
2023-02-03T17:22:45.939Z,9.40
2023-02-03T17:23:51.126Z,11.20
2023-02-03T17:24:53.745Z,11.90
2023-02-03T17:25:56.529Z,13.10
2023-02-03T17:26:59.575Z,10.64
2023-02-03T17:29:16.443Z,12.90
2023-02-03T17:30:20.197Z,12.00
2023-02-03T17:31:23.711Z,11.30
2023-02-03T17:32:27.390Z,12.30
2023-02-03T17:33:30.645Z,10.50
2023-02-03T17:34:36.820Z,11.80
2023-02-03T17:35:44.380Z,10.90
2023-02-03T17:36:49.113Z,11.30
2023-02-03T17:37:55.119Z,10.70
2023-02-03T19:28:05.321Z,13.60
2023-02-03T19:29:09.079Z,13.50
2023-02-03T19:30:14.149Z,14.40
2023-02-03T19:31:17.190Z,10.90
2023-02-03T19:32:19.709Z,13.80
2023-02-03T19:33:22.667Z,14.10
2023-02-03T19:34:26.961Z,14.82
2023-02-03T19:35:31.805Z,14.60
2023-02-03T19:36:35.673Z,14.30
2023-02-03T19:37:39.190Z,15.80
2023-02-03T19:38:41.547Z,15.40
2023-02-03T19:39:46.024Z,15.10
2023-02-03T19:40:49.611Z,12.80
2023-02-03T19:41:53.045Z,14.90
2023-02-03T19:42:55.917Z,13.60
2023-02-03T19:43:58.772Z,12.64
2023-02-03T19:45:01.153Z,13.55
2023-02-03T19:46:04.321Z,15.90
2023-02-03T19:47:06.907Z,13.60
2023-02-03T19:48:09.321Z,14.70
2023-02-03T19:49:13.802Z,13.20
2023-02-03T19:50:18.052Z,14.00
2023-02-03T19:51:20.913Z,14.60
2023-02-03T19:52:23.952Z,15.18
2023-02-03T19:53:26.480Z,16.00
2023-02-03T19:54:30.226Z,14.60
2023-02-03T19:55:32.676Z,14.30
2023-02-03T19:56:35.542Z,13.20
2023-02-03T19:57:38.001Z,14.09
2023-02-03T19:58:40.840Z,15.50
2023-02-03T19:59:43.426Z,11.60
2023-02-03T20:00:46.920Z,13.00
2023-02-03T20:01:50.505Z,13.50
2023-02-03T20:02:53.693Z,12.30
2023-02-03T20:03:57.881Z,12.80
2023-02-03T20:05:01.080Z,13.70
2023-02-03T20:06:04.444Z,15.00
2023-02-03T20:07:06.938Z,12.90
2023-02-03T20:08:12.053Z,12.70
2023-02-03T20:09:14.793Z,13.50
2023-02-03T20:10:18.268Z,13.70
2023-02-03T20:11:20.707Z,13.50
2023-02-03T20:12:23.289Z,14.50
2023-02-03T20:13:25.881Z,11.70
2023-02-03T20:14:31.123Z,13.40
2023-02-03T20:15:36.309Z,13.70
2023-02-03T20:16:38.985Z,11.90
2023-02-03T20:17:42.599Z,15.20
2023-02-03T20:18:45.392Z,12.90
2023-02-03T20:19:49.377Z,11.90
2023-02-03T20:20:52.880Z,13.50
2023-02-03T20:21:56.579Z,12.70
2023-02-03T20:23:00.949Z,14.80
2023-02-03T20:24:05.718Z,9.50
2023-02-03T20:25:10.091Z,12.60
2023-02-03T20:26:14.385Z,12.40
2023-02-03T20:27:19.033Z,10.90
2023-02-03T20:28:23.796Z,13.00
2023-02-03T20:29:27.267Z,13.70
2023-02-03T20:30:30.635Z,14.10
2023-02-03T20:31:35.189Z,11.80
2023-02-03T20:32:39.126Z,13.30
2023-02-03T20:33:45.839Z,14.30
2023-02-03T20:34:51.544Z,12.20
2023-02-03T20:35:56.034Z,11.90
2023-02-03T20:37:01.528Z,13.20
2023-02-03T20:38:04.906Z,13.40
2023-02-03T20:40:23.968Z,12.20
2023-02-03T20:41:26.349Z,12.40
2023-02-03T20:42:28.699Z,11.60
2023-02-03T20:43:32.046Z,12.30
2023-02-03T20:44:34.712Z,13.40
2023-02-03T20:45:37.693Z,12.70